createdAt,value
2022-12-27T00:00:09.537Z,0.55
2022-12-27T00:02:41.473Z,0.68
2022-12-27T00:05:10.531Z,0.51
2022-12-27T00:07:37.956Z,0.48
2022-12-27T00:10:08.196Z,-0.06
2022-12-27T00:12:37.757Z,0.14
2022-12-27T00:15:05.797Z,0.35
2022-12-27T00:17:33.153Z,0.20
2022-12-27T00:20:05.360Z,0.17
2022-12-27T00:22:39.277Z,0.24
2022-12-27T00:25:07.441Z,0.19
2022-12-27T00:27:34.738Z,0.18
2022-12-27T00:30:02.155Z,0.25
2022-12-27T00:32:29.746Z,0.29
2022-12-27T00:34:57.057Z,0.17
2022-12-27T00:37:24.424Z,0.12
2022-12-27T00:39:52.127Z,0.08
2022-12-27T00:42:19.572Z,0.02
2022-12-27T00:44:47.152Z,0.17
2022-12-27T00:47:14.840Z,0.07
2022-12-27T00:49:42.158Z,-0.09
2022-12-27T00:52:09.366Z,-0.11
2022-12-27T00:54:37.162Z,-0.15
2022-12-27T00:57:04.640Z,0.26
2022-12-27T00:59:32.075Z,0.05
2022-12-27T01:02:00.166Z,0.22
2022-12-27T01:04:27.663Z,0.11
2022-12-27T01:06:54.902Z,0.13
2022-12-27T01:09:22.508Z,0.24
2022-12-27T01:11:50.162Z,-0.28
2022-12-27T01:14:17.864Z,-0.10
2022-12-27T01:16:45.776Z,-0.05
2022-12-27T01:19:16.129Z,-0.11
2022-12-27T01:21:43.633Z,-0.13
2022-12-27T01:24:11.339Z,-0.21
2022-12-27T01:26:38.680Z,-0.19
2022-12-27T01:29:06.040Z,-0.60
2022-12-27T01:31:33.774Z,-0.41
2022-12-27T01:34:01.270Z,-0.29
2022-12-27T01:36:30.176Z,-0.01
2022-12-27T01:38:59.276Z,-0.22
2022-12-27T01:41:54.611Z,-0.36
2022-12-27T01:44:41.065Z,-0.26
2022-12-27T01:47:20.617Z,-0.36
2022-12-27T01:49:57.244Z,-0.49
2022-12-27T01:52:34.882Z,-0.59
2022-12-27T01:55:10.843Z,-0.62
2022-12-27T01:57:38.848Z,-0.56
2022-12-27T02:00:07.313Z,-0.36
2022-12-27T02:02:35.617Z,-0.57
2022-12-27T02:05:03.720Z,-0.68
2022-12-27T02:07:47.705Z,-0.66
2022-12-27T02:10:16.680Z,-0.30
2022-12-27T02:12:44.426Z,-0.58
2022-12-27T02:15:11.975Z,-0.56
2022-12-27T02:17:39.663Z,-0.48
2022-12-27T02:20:17.560Z,-0.48
2022-12-27T02:23:03.704Z,-0.52
2022-12-27T02:25:40.151Z,-0.51
2022-12-27T02:28:20.091Z,-0.57
2022-12-27T02:30:49.983Z,-0.54
2022-12-27T02:33:22.926Z,-0.45
2022-12-27T02:36:03.666Z,-0.47
2022-12-27T02:38:36.394Z,-0.45
2022-12-27T02:41:25.900Z,-0.50
2022-12-27T02:44:14.116Z,-0.46
2022-12-27T02:47:01.666Z,-0.73
2022-12-27T02:49:50.951Z,-0.59
2022-12-27T02:52:39.652Z,-0.21
2022-12-27T02:55:30.498Z,-0.74
2022-12-27T02:58:26.163Z,-0.62
2022-12-27T03:01:36.640Z,-0.69
2022-12-27T03:04:10.127Z,-0.69
2022-12-27T03:07:07.913Z,-0.52
2022-12-27T03:10:06.527Z,-0.45
2022-12-27T03:12:55.726Z,-0.39
2022-12-27T03:15:44.688Z,-0.50
2022-12-27T03:18:18.485Z,-0.40
2022-12-27T03:21:07.393Z,-0.60
2022-12-27T03:23:55.427Z,-0.55
2022-12-27T03:26:26.677Z,-0.57
2022-12-27T03:29:16.799Z,-0.66
2022-12-27T03:32:08.411Z,-0.50
2022-12-27T03:34:41.073Z,-0.51
2022-12-27T03:37:34.731Z,-0.49
2022-12-27T03:40:18.783Z,-0.53
2022-12-27T03:43:13.678Z,-0.52
2022-12-27T03:46:14.491Z,-0.60
2022-12-27T03:49:11.965Z,-0.60
2022-12-27T03:52:18.296Z,-0.53
2022-12-27T03:54:48.731Z,-0.87
2022-12-27T03:57:23.388Z,-1.06
2022-12-27T03:59:50.651Z,-1.02
2022-12-27T04:02:18.787Z,-0.94
2022-12-27T04:04:46.652Z,-1.09
2022-12-27T04:07:14.390Z,-0.88
2022-12-27T04:10:00.810Z,-0.86
2022-12-27T04:12:47.627Z,-1.04
2022-12-27T04:15:33.754Z,-0.87
2022-12-27T04:18:19.922Z,-0.69
2022-12-27T04:21:06.073Z,-0.76
2022-12-27T04:23:52.337Z,-0.86
2022-12-27T04:26:38.057Z,-1.09
2022-12-27T04:29:24.534Z,-1.14
2022-12-27T04:32:10.642Z,-1.01
2022-12-27T04:34:44.139Z,-1.11
2022-12-27T04:37:20.931Z,-1.12
2022-12-27T04:40:07.212Z,-0.92
2022-12-27T04:42:53.603Z,-1.07
2022-12-27T04:45:40.327Z,-0.94
2022-12-27T04:48:32.224Z,-1.23
2022-12-27T04:51:19.374Z,-1.21
2022-12-27T04:54:05.445Z,-0.93
2022-12-27T04:56:33.736Z,-1.05
2022-12-27T04:59:19.940Z,-1.12
2022-12-27T05:02:04.498Z,-1.27
2022-12-27T05:04:37.968Z,-0.99
2022-12-27T05:07:28.291Z,-1.08
2022-12-27T05:10:15.821Z,-1.10
2022-12-27T05:13:02.573Z,-1.21
2022-12-27T05:15:30.086Z,-1.09
2022-12-27T05:17:58.300Z,-1.51
2022-12-27T05:20:25.932Z,-1.58
2022-12-27T05:23:11.696Z,-1.58
2022-12-27T05:25:44.065Z,-1.48
2022-12-27T05:28:12.350Z,-1.27
2022-12-27T05:30:42.650Z,-1.38
2022-12-27T05:33:10.082Z,-1.24
2022-12-27T05:35:37.821Z,-1.32
2022-12-27T05:38:05.691Z,-1.43
2022-12-27T05:40:33.273Z,-1.54
2022-12-27T05:43:03.699Z,-2.14
2022-12-27T05:45:31.561Z,-1.65
2022-12-27T05:48:00.925Z,-1.74
2022-12-27T05:50:28.222Z,-1.52
2022-12-27T05:53:10.738Z,-1.52
2022-12-27T05:55:38.165Z,-1.50
2022-12-27T05:58:06.763Z,-1.41
2022-12-27T06:00:34.604Z,-1.11
2022-12-27T06:03:03.592Z,-1.30
2022-12-27T06:05:31.088Z,-1.40
2022-12-27T06:07:58.795Z,-1.31
2022-12-27T06:10:27.826Z,-1.06
2022-12-27T06:12:55.241Z,-0.93
2022-12-27T06:15:22.893Z,-1.41
2022-12-27T06:17:50.592Z,-1.32
2022-12-27T06:20:18.231Z,-1.63
2022-12-27T06:22:45.967Z,-1.35
2022-12-27T06:25:14.518Z,-1.28
2022-12-27T06:27:42.343Z,-1.59
2022-12-27T06:30:12.387Z,-1.76
2022-12-27T06:32:40.106Z,-1.36
2022-12-27T06:35:07.817Z,-1.72
2022-12-27T06:37:35.193Z,-1.30
2022-12-27T06:40:03.047Z,-0.86
2022-12-27T06:42:31.119Z,-0.37
2022-12-27T06:44:58.494Z,-0.23
2022-12-27T06:47:26.319Z,0.08
2022-12-27T06:49:53.682Z,0.46
2022-12-27T06:52:22.893Z,0.75
2022-12-27T06:54:50.584Z,0.99
2022-12-27T06:57:18.005Z,0.74
2022-12-27T06:59:49.509Z,0.93
2022-12-27T07:02:21.741Z,0.92
2022-12-27T07:04:49.167Z,0.56
2022-12-27T07:07:16.534Z,0.97
2022-12-27T07:09:44.232Z,1.33
2022-12-27T07:12:11.697Z,1.31
2022-12-27T07:14:39.180Z,1.15
2022-12-27T07:17:06.884Z,1.51
2022-12-27T07:19:34.379Z,1.67
2022-12-27T07:22:01.770Z,1.51
2022-12-27T07:24:32.426Z,1.59
2022-12-27T07:27:02.016Z,1.95
2022-12-27T07:29:29.667Z,2.26
2022-12-27T07:31:58.452Z,2.05
2022-12-27T07:34:26.370Z,2.35
2022-12-27T07:36:54.164Z,2.63
2022-12-27T07:39:21.470Z,2.73
2022-12-27T07:41:48.893Z,2.86
2022-12-27T07:44:19.043Z,2.73
2022-12-27T07:46:46.382Z,3.07
2022-12-27T07:49:17.558Z,3.47
2022-12-27T07:51:46.057Z,3.90
2022-12-27T07:54:13.455Z,3.91
2022-12-27T07:56:40.883Z,3.62
2022-12-27T07:59:13.062Z,3.92
2022-12-27T08:01:59.501Z,3.92
2022-12-27T08:04:27.372Z,4.05
2022-12-27T08:07:16.846Z,4.31
2022-12-27T08:09:46.499Z,4.15
2022-12-27T08:12:15.480Z,4.47
2022-12-27T08:14:43.257Z,4.54
2022-12-27T08:17:18.674Z,4.80
2022-12-27T08:19:47.227Z,5.22
2022-12-27T08:22:15.654Z,5.41
2022-12-27T08:24:44.122Z,4.93
2022-12-27T08:27:12.482Z,5.22
2022-12-27T08:29:40.228Z,5.70
2022-12-27T08:32:07.640Z,6.07
2022-12-27T08:34:34.946Z,6.35
2022-12-27T08:37:02.732Z,6.19
2022-12-27T08:39:30.449Z,6.10
2022-12-27T08:41:57.799Z,5.74
2022-12-27T08:44:27.499Z,5.82
2022-12-27T08:46:54.719Z,5.96
2022-12-27T08:49:22.786Z,5.87
2022-12-27T08:51:50.464Z,5.49
2022-12-27T08:54:17.845Z,5.45
2022-12-27T08:56:45.270Z,5.53
2022-12-27T08:59:13.129Z,5.27
2022-12-27T09:01:40.628Z,5.10
2022-12-27T09:04:08.123Z,5.36
2022-12-27T09:06:35.843Z,5.23
2022-12-27T09:09:03.254Z,5.45
2022-12-27T09:11:35.444Z,5.35
2022-12-27T09:14:05.737Z,5.41
2022-12-27T09:16:34.391Z,5.00
2022-12-27T09:19:02.595Z,5.05
2022-12-27T09:21:32.287Z,5.25
2022-12-27T09:23:59.567Z,5.00
2022-12-27T09:26:29.474Z,5.27
2022-12-27T09:28:58.351Z,5.03
2022-12-27T09:31:26.544Z,5.00
2022-12-27T09:33:54.387Z,5.09
2022-12-27T09:36:25.260Z,5.08
2022-12-27T09:38:54.350Z,5.03
2022-12-27T09:44:53.050Z,5.09
2022-12-27T09:47:24.208Z,5.15
2022-12-27T09:49:57.250Z,5.90
2022-12-27T09:52:54.829Z,6.28
2022-12-27T09:55:46.181Z,6.46
2022-12-27T09:58:25.645Z,7.09
2022-12-27T10:00:53.376Z,7.57
2022-12-27T10:03:26.041Z,7.49
2022-12-27T10:06:18.568Z,8.13
2022-12-27T10:09:12.604Z,8.69
2022-12-27T10:11:45.388Z,9.51
2022-12-27T10:14:24.858Z,9.92
2022-12-27T10:17:01.034Z,10.12
2022-12-27T10:19:41.143Z,10.10
2022-12-27T10:22:25.622Z,10.67
2022-12-27T10:25:00.909Z,10.51
2022-12-27T10:27:30.073Z,10.62
2022-12-27T10:29:59.524Z,11.19
2022-12-27T10:32:27.509Z,10.98
2022-12-27T10:35:01.464Z,11.48
2022-12-27T10:37:29.494Z,11.94
2022-12-27T10:40:16.440Z,11.72
2022-12-27T10:42:53.400Z,12.05
2022-12-27T10:45:33.690Z,12.28
2022-12-27T10:48:21.174Z,13.11
2022-12-27T10:50:53.883Z,13.51
2022-12-27T10:53:33.144Z,13.70
2022-12-27T10:56:16.953Z,13.63
2022-12-27T10:58:56.555Z,13.94
2022-12-27T11:01:30.530Z,14.36
2022-12-27T11:04:21.952Z,14.62
2022-12-27T11:07:13.573Z,15.25
2022-12-27T11:09:50.867Z,15.19
2022-12-27T11:12:32.408Z,15.40
2022-12-27T11:15:13.956Z,15.88
2022-12-27T11:17:52.269Z,15.57
2022-12-27T11:20:23.254Z,15.87
2022-12-27T11:22:56.722Z,15.99
2022-12-27T11:25:27.194Z,16.17
2022-12-27T11:28:06.901Z,16.46
2022-12-27T11:30:40.366Z,16.46
2022-12-27T11:33:25.204Z,16.75
2022-12-27T11:35:56.072Z,16.59
2022-12-27T11:38:26.739Z,16.43
2022-12-27T11:41:00.399Z,16.18
2022-12-27T11:43:33.563Z,16.17
2022-12-27T11:46:05.942Z,16.64
2022-12-27T11:48:45.588Z,16.24
2022-12-27T11:51:38.407Z,16.51
2022-12-27T11:54:33.075Z,16.11
2022-12-27T11:57:17.732Z,16.73
2022-12-27T11:59:54.454Z,16.66
2022-12-27T12:02:40.563Z,16.49
2022-12-27T12:05:27.402Z,15.96
2022-12-27T12:08:16.061Z,16.60
2022-12-27T12:10:53.527Z,16.56
2022-12-27T12:13:38.961Z,16.41
2022-12-27T12:16:23.952Z,16.28
2022-12-27T12:19:21.724Z,15.96
2022-12-27T12:22:10.377Z,15.84
2022-12-27T12:25:10.072Z,15.80
2022-12-27T12:27:43.797Z,15.61
2022-12-27T12:30:27.322Z,15.28
2022-12-27T12:33:03.738Z,15.20
2022-12-27T12:36:06.833Z,15.10
2022-12-27T12:38:49.071Z,14.80
2022-12-27T12:41:44.140Z,15.63
2022-12-27T12:44:21.477Z,16.28
2022-12-27T12:47:21.125Z,16.21
2022-12-27T12:49:55.003Z,15.68
2022-12-27T12:52:41.901Z,14.89
2022-12-27T12:55:32.150Z,14.31
2022-12-27T12:58:40.300Z,13.80
2022-12-27T13:02:01.513Z,13.53
2022-12-27T13:04:51.807Z,13.28
2022-12-27T13:07:27.382Z,12.74
2022-12-27T13:10:32.244Z,12.76
2022-12-27T13:13:23.402Z,12.55
2022-12-27T13:16:13.943Z,12.44
2022-12-27T13:18:48.358Z,12.38
2022-12-27T13:21:40.771Z,12.32
2022-12-27T13:24:42.773Z,12.43
2022-12-27T13:27:25.620Z,12.43
2022-12-27T13:30:24.924Z,12.23
2022-12-27T13:33:23.424Z,12.01
2022-12-27T13:36:00.523Z,11.99
2022-12-27T13:38:54.049Z,12.13
2022-12-27T13:41:31.006Z,12.00
2022-12-27T13:44:20.270Z,11.82
2022-12-27T13:46:56.636Z,11.82
2022-12-27T13:49:55.476Z,11.69
2022-12-27T13:52:59.215Z,11.61
2022-12-27T13:56:14.870Z,11.67
2022-12-27T13:59:06.184Z,11.82
2022-12-27T14:01:46.483Z,11.72
2022-12-27T14:04:23.801Z,11.73
2022-12-27T14:07:14.409Z,11.52
2022-12-27T14:10:11.807Z,11.48
2022-12-27T14:13:06.890Z,11.49
2022-12-27T14:15:37.858Z,11.37
2022-12-27T14:18:48.482Z,11.18
2022-12-27T14:21:28.429Z,11.34
2022-12-27T14:24:08.269Z,11.10
2022-12-27T14:27:13.650Z,11.04
2022-12-27T14:30:12.093Z,11.08
2022-12-27T14:33:17.062Z,11.01
2022-12-27T14:36:10.068Z,10.99
2022-12-27T14:38:48.139Z,10.91
2022-12-27T14:41:57.779Z,10.77
2022-12-27T14:44:57.721Z,10.78
2022-12-27T14:47:28.022Z,10.78
2022-12-27T14:50:14.565Z,10.82
2022-12-27T14:53:14.555Z,10.83
2022-12-27T14:55:45.115Z,10.77
2022-12-27T14:58:18.554Z,10.83
2022-12-27T15:01:09.560Z,10.75
2022-12-27T15:04:14.170Z,10.73
2022-12-27T15:07:11.316Z,10.68
2022-12-27T15:09:44.613Z,10.53
2022-12-27T15:12:35.114Z,10.45
2022-12-27T15:15:27.381Z,10.55
2022-12-27T15:17:55.080Z,10.38
2022-12-27T15:20:33.868Z,10.14
2022-12-27T15:23:04.422Z,10.14
2022-12-27T15:25:59.234Z,10.18
2022-12-27T15:29:06.977Z,10.15
2022-12-27T15:31:46.454Z,10.09
2022-12-27T15:34:47.080Z,10.01
2022-12-27T15:37:45.931Z,9.99
2022-12-27T15:40:38.894Z,10.04
2022-12-27T15:43:29.505Z,10.14
2022-12-27T15:46:36.391Z,9.74
2022-12-27T15:49:13.152Z,9.68
2022-12-27T15:51:54.378Z,9.64
2022-12-27T15:54:53.632Z,9.72
2022-12-27T15:57:37.075Z,9.81
2022-12-27T16:00:14.925Z,9.59
2022-12-27T16:02:48.797Z,9.68
2022-12-27T16:05:19.379Z,9.49
2022-12-27T16:07:50.403Z,9.44
2022-12-27T16:10:36.359Z,9.50
2022-12-27T16:13:10.774Z,9.39
2022-12-27T16:15:44.999Z,9.31
2022-12-27T16:18:21.842Z,9.17
2022-12-27T16:21:01.964Z,9.20
2022-12-27T16:24:04.018Z,8.97
2022-12-27T16:26:34.690Z,8.93
2022-12-27T16:29:06.964Z,9.26
2022-12-27T16:31:41.860Z,9.05
2022-12-27T16:34:20.820Z,9.15
2022-12-27T16:36:50.056Z,9.13
2022-12-27T16:39:57.486Z,8.85
2022-12-27T16:42:54.233Z,8.84
2022-12-27T16:45:40.084Z,8.90
2022-12-27T16:48:42.681Z,8.73
2022-12-27T16:51:19.506Z,8.58
2022-12-27T16:54:24.231Z,8.35
2022-12-27T16:57:15.633Z,8.31
2022-12-27T16:59:56.741Z,8.22
2022-12-27T17:02:45.281Z,8.11
2022-12-27T17:05:15.939Z,8.07
2022-12-27T17:07:56.202Z,7.69
2022-12-27T17:10:33.081Z,7.79
2022-12-27T17:13:28.895Z,7.56
2022-12-27T17:16:05.475Z,7.64
2022-12-27T17:18:48.626Z,7.43
2022-12-27T17:21:36.511Z,7.31
2022-12-27T17:24:18.986Z,7.29
2022-12-27T17:27:15.173Z,7.10
2022-12-27T17:30:02.988Z,7.05
2022-12-27T17:32:52.344Z,6.98
2022-12-27T17:35:33.638Z,6.99
2022-12-27T17:38:28.449Z,7.10
2022-12-27T17:41:07.936Z,7.17
2022-12-27T17:43:59.165Z,7.05
2022-12-27T17:46:42.107Z,7.15
2022-12-27T17:49:11.027Z,7.17
2022-12-27T17:52:02.310Z,7.06
2022-12-27T17:54:48.894Z,7.02
2022-12-27T17:57:38.243Z,7.32
2022-12-27T18:00:07.176Z,7.20
2022-12-27T18:02:40.875Z,7.29
2022-12-27T18:05:15.146Z,7.50
2022-12-27T18:07:44.518Z,7.38
2022-12-27T18:10:27.990Z,7.24
2022-12-27T18:12:59.389Z,7.08
2022-12-27T18:15:30.831Z,7.01
2022-12-27T18:18:09.141Z,6.90
2022-12-27T18:20:38.797Z,6.90
2022-12-27T18:23:06.321Z,6.90
2022-12-27T18:25:37.791Z,6.83
2022-12-27T18:28:16.613Z,6.85
2022-12-27T18:31:03.108Z,6.62
2022-12-27T18:33:45.287Z,6.54
2022-12-27T18:36:22.603Z,6.23
2022-12-27T18:39:20.409Z,5.93
2022-12-27T18:41:52.779Z,5.84
2022-12-27T18:44:48.728Z,5.82
2022-12-27T18:47:27.171Z,6.00
2022-12-27T18:50:01.449Z,5.76
2022-12-27T18:52:34.975Z,5.82
2022-12-27T18:55:27.004Z,5.68
2022-12-27T18:58:33.945Z,5.74
2022-12-27T19:01:05.968Z,5.64
2022-12-27T19:03:40.251Z,5.65
2022-12-27T19:06:12.762Z,5.53
2022-12-27T19:09:13.697Z,5.58
2022-12-27T19:12:00.079Z,5.53
2022-12-27T19:14:43.493Z,5.35
2022-12-27T19:17:23.623Z,5.33
2022-12-27T19:19:56.921Z,5.19
2022-12-27T19:22:48.332Z,5.17
2022-12-27T19:25:20.590Z,4.96
2022-12-27T19:28:12.097Z,5.05
2022-12-27T19:30:45.315Z,5.06
2022-12-27T19:33:25.389Z,5.05
2022-12-27T19:35:54.246Z,4.91
2022-12-27T19:38:25.152Z,4.73
2022-12-27T19:41:01.271Z,4.71
2022-12-27T19:43:38.578Z,4.48
2022-12-27T19:46:06.121Z,4.69
2022-12-27T19:48:34.104Z,4.58
2022-12-27T19:51:01.600Z,4.61
2022-12-27T19:53:32.882Z,4.59
2022-12-27T19:56:03.067Z,4.47
2022-12-27T19:58:31.226Z,4.36
2022-12-27T20:00:59.099Z,4.32
2022-12-27T20:03:27.406Z,4.24
2022-12-27T20:06:13.723Z,4.02
2022-12-27T20:08:46.220Z,4.08
2022-12-27T20:11:19.632Z,4.11
2022-12-27T20:13:49.005Z,4.19
2022-12-27T20:16:19.403Z,4.14
2022-12-27T20:18:47.740Z,4.06
2022-12-27T20:21:17.393Z,3.91
2022-12-27T20:23:45.978Z,3.96
2022-12-27T20:26:17.899Z,3.84
2022-12-27T20:28:45.533Z,3.89
2022-12-27T20:31:15.623Z,3.83
2022-12-27T20:33:43.855Z,3.85
2022-12-27T20:36:12.253Z,3.77
2022-12-27T20:38:39.903Z,3.66
2022-12-27T20:41:09.780Z,3.67
2022-12-27T20:43:37.443Z,3.66
2022-12-27T20:46:06.629Z,3.64
2022-12-27T20:48:38.209Z,3.60
2022-12-27T20:51:10.696Z,3.46
2022-12-27T20:53:38.359Z,3.52
2022-12-27T20:56:06.835Z,3.55
2022-12-27T20:58:34.921Z,3.48
2022-12-27T21:01:10.357Z,3.64
2022-12-27T21:03:38.302Z,3.42
2022-12-27T21:06:11.483Z,3.55
2022-12-27T21:08:46.698Z,3.22
2022-12-27T21:11:22.827Z,3.36
2022-12-27T21:13:50.612Z,3.30
2022-12-27T21:16:27.431Z,3.21
2022-12-27T21:18:55.725Z,3.11
2022-12-27T21:21:28.277Z,3.04
2022-12-27T21:23:58.063Z,2.94
2022-12-27T21:26:31.799Z,2.83
2022-12-27T21:29:00.636Z,2.95
2022-12-27T21:31:28.893Z,2.99
2022-12-27T21:33:57.524Z,3.10
2022-12-27T21:36:26.751Z,3.19
2022-12-27T21:38:55.097Z,2.84
2022-12-27T21:41:28.171Z,2.66
2022-12-27T21:43:56.480Z,2.77
2022-12-27T21:46:26.461Z,2.68
2022-12-27T21:49:04.678Z,2.77
2022-12-27T21:51:33.592Z,2.92
2022-12-27T21:54:01.133Z,2.81
2022-12-27T21:56:28.834Z,2.70
2022-12-27T21:58:58.066Z,2.89
2022-12-27T22:01:29.037Z,2.83
2022-12-27T22:03:58.212Z,2.71
2022-12-27T22:06:31.125Z,2.85
2022-12-27T22:09:07.340Z,2.71
2022-12-27T22:11:36.209Z,2.58
2022-12-27T22:14:05.121Z,2.60
2022-12-27T22:16:35.595Z,2.27
2022-12-27T22:19:06.502Z,2.13
2022-12-27T22:21:35.560Z,2.42
2022-12-27T22:24:03.623Z,2.24
2022-12-27T22:26:34.924Z,2.29
2022-12-27T22:29:02.503Z,2.31
2022-12-27T22:31:35.337Z,1.91
2022-12-27T22:34:04.495Z,2.34
2022-12-27T22:36:32.073Z,2.44
2022-12-27T22:39:00.320Z,2.57
2022-12-27T22:41:31.283Z,2.73
2022-12-27T22:44:01.121Z,2.79
2022-12-27T22:46:51.197Z,2.61
2022-12-27T22:49:18.163Z,2.48
2022-12-27T22:51:45.795Z,2.48
2022-12-27T22:54:13.129Z,2.70
2022-12-27T22:56:42.533Z,2.71
2022-12-27T22:59:16.306Z,2.86
2022-12-27T23:01:45.093Z,2.71
2022-12-27T23:04:13.834Z,2.84
2022-12-27T23:06:42.096Z,2.82
2022-12-27T23:09:10.256Z,2.92
2022-12-27T23:11:41.142Z,2.77
2022-12-27T23:14:14.070Z,2.62
2022-12-27T23:16:44.527Z,2.60
2022-12-27T23:19:12.989Z,2.61
2022-12-27T23:21:40.529Z,2.57
2022-12-27T23:24:08.840Z,2.56
2022-12-27T23:26:36.254Z,2.57
2022-12-27T23:29:03.877Z,2.76
2022-12-27T23:31:31.991Z,2.87
2022-12-27T23:33:59.538Z,2.80
2022-12-27T23:36:27.037Z,2.85
2022-12-27T23:38:55.570Z,2.88
2022-12-27T23:41:24.817Z,2.87
2022-12-27T23:43:55.029Z,2.63
2022-12-27T23:46:29.387Z,2.74
2022-12-27T23:48:58.447Z,2.79
2022-12-27T23:51:26.610Z,2.81
2022-12-27T23:53:54.434Z,2.80
2022-12-27T23:56:24.436Z,2.79
2022-12-27T23:58:54.552Z,2.50
